Time;durP1;ratioP1;P1;durP2;ratioP2;P2;SDS_P1;SDS_P2;PMS_P1;PMS_P2;Temp;Humidity;BMP_temperature;BMP_pressure;BME280_temperature;BME280_humidity;BME280_pressure;Samples;Min_cycle;Max_cycle;Signal;HPM_P1;HPM_P2
2024/01/18 00:01:55;;;;;;;53.03;23.98;;;;;;;;;;5129762;27;20766;-69
2024/01/18 00:04:22;;;;;;;47.50;23.02;;;;;;;;;;5128791;27;20150;-67
2024/01/18 00:06:48;;;;;;;51.28;24.65;;;;;;;;;;5115869;27;20063;-65
2024/01/18 00:09:18;;;;;;;48.35;25.05;;;;;;;;;;5112660;28;20047;-67
2024/01/18 00:11:44;;;;;;;58.42;23.88;;;;;;;;;;5109316;28;20404;-67
2024/01/18 00:14:10;;;;;;;50.55;22.60;;;;;;;;;;5109433;28;20044;-64
2024/01/18 00:16:37;;;;;;;48.10;22.20;;;;;;;;;;5109306;28;20047;-65
2024/01/18 00:19:06;;;;;;;47.55;22.27;;;;;;;;;;5108540;28;20573;-66
2024/01/18 00:21:33;;;;;;;46.28;22.83;;;;;;;;;;5109329;28;20047;-64
2024/01/18 00:23:59;;;;;;;50.53;23.52;;;;;;;;;;5109300;28;20059;-66
2024/01/18 00:26:26;;;;;;;43.17;22.77;;;;;;;;;;5109153;28;20529;-66
2024/01/18 00:28:52;;;;;;;50.80;23.85;;;;;;;;;;5108634;28;20150;-64
2024/01/18 00:31:19;;;;;;;58.78;25.38;;;;;;;;;;5109593;28;20047;-67
2024/01/18 00:33:45;;;;;;;49.35;24.15;;;;;;;;;;5121016;27;20055;-66
2024/01/18 00:36:12;;;;;;;53.97;25.00;;;;;;;;;;5131619;27;20138;-67
2024/01/18 00:38:38;;;;;;;43.30;21.33;;;;;;;;;;5130062;27;20086;-66
2024/01/18 00:41:05;;;;;;;42.58;20.75;;;;;;;;;;5129756;27;20054;-65
2024/01/18 00:43:32;;;;;;;44.72;19.95;;;;;;;;;;5129448;27;20163;-64
2024/01/18 00:46:01;;;;;;;49.10;21.73;;;;;;;;;;5129218;27;20043;-69
2024/01/18 00:48:28;;;;;;;46.40;22.10;;;;;;;;;;5128942;27;20082;-65
2024/01/18 00:50:55;;;;;;;43.33;20.42;;;;;;;;;;5120956;27;20129;-71
2024/01/18 00:53:21;;;;;;;47.30;20.65;;;;;;;;;;5108401;28;20051;-64
2024/01/18 00:55:52;;;;;;;41.08;19.98;;;;;;;;;;5108850;28;20472;-65
2024/01/18 00:58:18;;;;;;;41.30;20.15;;;;;;;;;;5107967;28;20079;-65
2024/01/18 01:00:45;;;;;;;41.33;20.88;;;;;;;;;;5108349;28;20047;-67
2024/01/18 01:03:11;;;;;;;46.42;22.00;;;;;;;;;;5110309;27;20084;-66
2024/01/18 01:05:38;;;;;;;43.78;20.92;;;;;;;;;;5122903;27;20043;-63
2024/01/18 01:08:04;;;;;;;42.47;21.13;;;;;;;;;;5107255;28;20054;-67
2024/01/18 01:10:30;;;;;;;41.70;19.80;;;;;;;;;;5090186;28;20055;-66
2024/01/18 01:12:57;;;;;;;37.53;19.83;;;;;;;;;;5108440;28;20082;-65
2024/01/18 01:15:24;;;;;;;38.92;20.23;;;;;;;;;;5108004;28;20395;-66
2024/01/18 01:17:50;;;;;;;41.67;20.48;;;;;;;;;;5107860;28;20774;-65
2024/01/18 01:20:17;;;;;;;41.63;19.63;;;;;;;;;;5108086;28;20515;-66
2024/01/18 01:22:43;;;;;;;40.78;18.67;;;;;;;;;;5108169;28;20404;-68
2024/01/18 01:25:10;;;;;;;38.80;19.30;;;;;;;;;;5108241;28;20488;-67
2024/01/18 01:27:36;;;;;;;47.60;23.13;;;;;;;;;;5107750;28;20047;-64
2024/01/18 01:30:02;;;;;;;34.22;18.05;;;;;;;;;;5108058;28;20134;-67
2024/01/18 01:32:29;;;;;;;47.55;20.88;;;;;;;;;;5107572;28;20060;-65
2024/01/18 01:34:56;;;;;;;45.10;21.52;;;;;;;;;;5119723;28;20430;-68
2024/01/18 01:37:22;;;;;;;40.25;20.83;;;;;;;;;;5128067;28;20047;-64
2024/01/18 01:39:48;;;;;;;54.75;21.33;;;;;;;;;;5110053;28;20062;-64
2024/01/18 01:42:15;;;;;;;46.38;20.58;;;;;;;;;;5127884;28;20043;-66
2024/01/18 01:44:41;;;;;;;46.05;20.58;;;;;;;;;;5128614;28;20051;-68
2024/01/18 01:47:08;;;;;;;45.90;19.23;;;;;;;;;;5128278;28;20096;-68
2024/01/18 01:49:34;;;;;;;44.60;21.70;;;;;;;;;;5110070;28;20101;-67
2024/01/18 01:52:01;;;;;;;43.97;20.40;;;;;;;;;;5110858;28;20079;-68
2024/01/18 01:54:29;;;;;;;36.75;18.20;;;;;;;;;;5107574;28;20058;-65
2024/01/18 01:56:56;;;;;;;38.78;19.35;;;;;;;;;;5107385;28;20047;-68
2024/01/18 01:59:23;;;;;;;40.53;19.13;;;;;;;;;;5107405;28;20040;-65
2024/01/18 02:01:50;;;;;;;40.20;20.10;;;;;;;;;;5089605;28;20054;-65
2024/01/18 02:04:17;;;;;;;39.83;20.52;;;;;;;;;;5110204;28;20047;-66
2024/01/18 02:06:44;;;;;;;43.55;19.42;;;;;;;;;;5113373;28;20058;-65
2024/01/18 02:09:11;;;;;;;41.50;21.10;;;;;;;;;;5107439;28;20075;-69
2024/01/18 02:11:38;;;;;;;50.28;22.98;;;;;;;;;;5107937;28;20052;-65
2024/01/18 02:14:04;;;;;;;41.03;21.88;;;;;;;;;;5107621;28;20108;-67
2024/01/18 02:16:32;;;;;;;41.58;19.23;;;;;;;;;;5107361;28;20044;-67
2024/01/18 02:18:59;;;;;;;42.63;20.70;;;;;;;;;;5107349;28;20052;-67
2024/01/18 02:21:26;;;;;;;43.33;19.73;;;;;;;;;;5111563;28;20417;-64
2024/01/18 02:23:56;;;;;;;41.85;20.73;;;;;;;;;;5111532;28;20112;-65
2024/01/18 02:26:23;;;;;;;49.63;21.60;;;;;;;;;;5111360;28;20044;-66
2024/01/18 02:28:54;;;;;;;40.30;19.33;;;;;;;;;;5110804;28;20043;-65
2024/01/18 02:31:20;;;;;;;39.67;20.77;;;;;;;;;;5113478;28;20828;-67
2024/01/18 02:33:47;;;;;;;40.72;20.73;;;;;;;;;;5112266;28;20104;-64
2024/01/18 02:36:13;;;;;;;41.83;19.73;;;;;;;;;;5125200;27;20166;-66
2024/01/18 02:38:40;;;;;;;33.75;19.13;;;;;;;;;;5131763;27;20611;-65
2024/01/18 02:41:06;;;;;;;40.08;19.80;;;;;;;;;;5131849;27;20043;-64
2024/01/18 02:43:33;;;;;;;39.70;19.92;;;;;;;;;;5131786;27;20039;-65
2024/01/18 02:45:59;;;;;;;48.63;20.55;;;;;;;;;;5131494;27;20507;-65
2024/01/18 02:48:26;;;;;;;39.63;19.98;;;;;;;;;;5130854;27;20054;-64
2024/01/18 02:50:52;;;;;;;32.35;17.60;;;;;;;;;;5124899;27;20081;-65
2024/01/18 02:53:20;;;;;;;41.53;19.05;;;;;;;;;;5093521;28;20043;-65
2024/01/18 02:55:47;;;;;;;39.78;18.88;;;;;;;;;;5113082;28;20079;-68
2024/01/18 02:58:13;;;;;;;41.88;19.90;;;;;;;;;;5110953;28;20047;-68
2024/01/18 03:00:40;;;;;;;42.90;19.67;;;;;;;;;;5111365;28;20047;-67
2024/01/18 03:03:06;;;;;;;44.53;20.00;;;;;;;;;;5110850;28;20470;-66
2024/01/18 03:05:33;;;;;;;36.65;19.20;;;;;;;;;;5111880;27;20518;-65
2024/01/18 03:08:00;;;;;;;45.83;20.55;;;;;;;;;;5130720;27;20107;-67
2024/01/18 03:10:26;;;;;;;43.67;20.08;;;;;;;;;;5130749;27;20065;-65
2024/01/18 03:12:53;;;;;;;42.80;20.42;;;;;;;;;;5131330;27;20055;-64
2024/01/18 03:15:19;;;;;;;38.13;17.67;;;;;;;;;;5131062;27;20540;-66
2024/01/18 03:17:46;;;;;;;35.70;19.70;;;;;;;;;;5131728;27;20043;-64
2024/01/18 03:20:15;;;;;;;41.00;19.83;;;;;;;;;;5133389;27;20079;-64
2024/01/18 03:22:41;;;;;;;46.30;19.08;;;;;;;;;;5130988;27;20055;-66
2024/01/18 03:25:08;;;;;;;49.05;20.70;;;;;;;;;;5130846;27;20047;-68
2024/01/18 03:27:34;;;;;;;41.42;19.88;;;;;;;;;;5130914;27;20183;-66
2024/01/18 03:30:01;;;;;;;35.67;18.50;;;;;;;;;;5130690;27;20120;-66
2024/01/18 03:32:27;;;;;;;39.20;19.83;;;;;;;;;;5130618;27;20456;-65
2024/01/18 03:34:54;;;;;;;40.22;19.95;;;;;;;;;;5112568;27;20039;-65
2024/01/18 03:37:21;;;;;;;52.10;21.48;;;;;;;;;;5111147;27;20140;-64
2024/01/18 03:39:47;;;;;;;40.03;20.50;;;;;;;;;;5112753;27;20128;-65
2024/01/18 03:42:14;;;;;;;46.15;21.65;;;;;;;;;;5132638;27;20457;-66
2024/01/18 03:44:40;;;;;;;41.28;19.80;;;;;;;;;;5132337;27;20150;-65
2024/01/18 03:47:07;;;;;;;41.35;19.20;;;;;;;;;;5130059;27;20483;-68
2024/01/18 03:49:33;;;;;;;38.67;19.05;;;;;;;;;;5111794;27;20100;-64
2024/01/18 03:52:00;;;;;;;38.15;17.65;;;;;;;;;;5114110;27;20052;-66
2024/01/18 03:54:27;;;;;;;47.75;21.35;;;;;;;;;;5110185;28;20396;-66
2024/01/18 03:56:54;;;;;;;44.95;20.10;;;;;;;;;;5110153;28;20130;-64
2024/01/18 03:59:20;;;;;;;43.38;19.60;;;;;;;;;;5109410;28;20081;-70
2024/01/18 04:01:46;;;;;;;45.60;20.38;;;;;;;;;;5110266;28;20048;-64
2024/01/18 04:04:13;;;;;;;45.40;20.23;;;;;;;;;;5110036;28;20051;-68
2024/01/18 04:06:40;;;;;;;41.47;19.52;;;;;;;;;;5115960;27;20051;-64
2024/01/18 04:09:08;;;;;;;42.75;20.30;;;;;;;;;;5130630;27;20051;-69
2024/01/18 04:11:35;;;;;;;40.85;19.67;;;;;;;;;;5132407;27;20510;-64
2024/01/18 04:14:01;;;;;;;41.60;21.23;;;;;;;;;;5130933;27;20043;-67
2024/01/18 04:16:29;;;;;;;41.10;19.50;;;;;;;;;;5111600;27;20424;-65
2024/01/18 04:18:55;;;;;;;38.55;19.42;;;;;;;;;;5129309;27;20039;-67
2024/01/18 04:21:22;;;;;;;43.78;21.80;;;;;;;;;;5129576;27;20134;-68
2024/01/18 04:23:48;;;;;;;44.92;20.77;;;;;;;;;;5129843;27;20051;-64
2024/01/18 04:26:15;;;;;;;36.72;18.73;;;;;;;;;;5111586;27;20070;-63
2024/01/18 04:28:41;;;;;;;44.33;20.90;;;;;;;;;;5129159;27;20108;-65
2024/01/18 04:31:08;;;;;;;45.97;21.60;;;;;;;;;;5129379;27;20059;-67
2024/01/18 04:33:34;;;;;;;46.83;20.98;;;;;;;;;;5129700;27;20051;-64
2024/01/18 04:36:01;;;;;;;44.67;21.27;;;;;;;;;;5129915;27;20043;-67
2024/01/18 04:38:28;;;;;;;45.78;20.20;;;;;;;;;;5127745;27;20088;-66
2024/01/18 04:40:54;;;;;;;50.20;20.92;;;;;;;;;;5129284;27;20593;-66
2024/01/18 04:43:20;;;;;;;38.75;19.60;;;;;;;;;;5128547;27;20548;-64
2024/01/18 04:45:47;;;;;;;41.45;21.90;;;;;;;;;;5129011;27;20963;-64
2024/01/18 04:48:13;;;;;;;40.00;20.20;;;;;;;;;;5110422;27;20047;-65
2024/01/18 04:50:40;;;;;;;41.63;20.85;;;;;;;;;;5124137;27;20051;-66
2024/01/18 04:53:07;;;;;;;43.08;21.27;;;;;;;;;;5108478;28;20048;-65
2024/01/18 04:55:33;;;;;;;46.05;21.58;;;;;;;;;;5108366;28;20054;-65
2024/01/18 04:57:59;;;;;;;36.53;19.63;;;;;;;;;;5108058;28;20583;-64
2024/01/18 05:00:26;;;;;;;42.25;20.50;;;;;;;;;;5108035;28;20485;-65
2024/01/18 05:02:52;;;;;;;42.58;20.27;;;;;;;;;;5108599;28;20051;-66
2024/01/18 05:05:19;;;;;;;43.75;19.77;;;;;;;;;;5092401;27;20055;-65
2024/01/18 05:07:46;;;;;;;45.28;19.60;;;;;;;;;;5127553;27;20054;-66
2024/01/18 05:10:13;;;;;;;45.13;22.38;;;;;;;;;;5129065;27;20100;-67
2024/01/18 05:12:40;;;;;;;41.97;19.90;;;;;;;;;;5128972;27;20100;-66
2024/01/18 05:15:07;;;;;;;39.00;19.52;;;;;;;;;;5128466;27;20617;-64
2024/01/18 05:17:37;;;;;;;50.75;22.30;;;;;;;;;;5128426;27;20046;-65
2024/01/18 05:20:04;;;;;;;39.50;21.23;;;;;;;;;;5110991;27;20086;-69
2024/01/18 05:22:31;;;;;;;40.88;20.77;;;;;;;;;;5128838;27;20057;-69
2024/01/18 05:24:59;;;;;;;54.17;21.55;;;;;;;;;;5128728;27;20051;-66
2024/01/18 05:27:32;;;;;;;51.17;22.95;;;;;;;;;;5128098;27;20059;-65
2024/01/18 05:29:59;;;;;;;44.28;20.55;;;;;;;;;;5128449;27;20058;-68
2024/01/18 05:32:26;;;;;;;47.95;21.92;;;;;;;;;;5110090;28;20043;-65
2024/01/18 05:34:53;;;;;;;54.30;20.60;;;;;;;;;;5128687;28;20051;-66
2024/01/18 05:37:22;;;;;;;47.90;22.63;;;;;;;;;;5128143;28;20431;-66
2024/01/18 05:39:52;;;;;;;43.38;22.20;;;;;;;;;;5128265;28;20050;-65
2024/01/18 05:42:19;;;;;;;48.75;23.83;;;;;;;;;;5130707;28;20086;-66
2024/01/18 05:44:46;;;;;;;51.03;23.02;;;;;;;;;;5128325;28;20086;-68
2024/01/18 05:47:12;;;;;;;49.47;21.90;;;;;;;;;;5128279;28;20448;-71
2024/01/18 05:49:39;;;;;;;47.00;22.58;;;;;;;;;;5128712;28;20067;-64
2024/01/18 05:52:06;;;;;;;44.97;21.67;;;;;;;;;;5110196;28;20052;-67
2024/01/18 05:54:35;;;;;;;49.92;21.20;;;;;;;;;;5090382;28;20043;-65
2024/01/18 05:57:03;;;;;;;40.85;21.48;;;;;;;;;;5111983;28;20892;-64
2024/01/18 05:59:32;;;;;;;46.63;21.60;;;;;;;;;;5094118;28;20058;-67
2024/01/18 06:01:59;;;;;;;48.72;21.77;;;;;;;;;;5112252;28;20039;-63
2024/01/18 06:04:25;;;;;;;45.20;21.92;;;;;;;;;;5114612;28;20051;-65
2024/01/18 06:06:52;;;;;;;47.58;22.30;;;;;;;;;;5129475;27;20077;-67
2024/01/18 06:09:19;;;;;;;47.80;22.88;;;;;;;;;;5112386;27;20084;-64
2024/01/18 06:11:45;;;;;;;41.28;20.95;;;;;;;;;;5132697;27;20487;-67
2024/01/18 06:14:12;;;;;;;45.75;22.42;;;;;;;;;;5132138;27;20047;-67
2024/01/18 06:16:38;;;;;;;44.53;21.42;;;;;;;;;;5131804;27;20518;-66
2024/01/18 06:19:05;;;;;;;43.67;21.80;;;;;;;;;;5131967;27;20476;-66
2024/01/18 06:21:32;;;;;;;48.90;21.98;;;;;;;;;;5113909;27;20108;-65
2024/01/18 06:24:02;;;;;;;48.28;23.65;;;;;;;;;;5131836;27;20074;-67
2024/01/18 06:26:29;;;;;;;46.28;22.65;;;;;;;;;;5131998;27;20039;-66
2024/01/18 06:28:55;;;;;;;44.28;22.48;;;;;;;;;;5133120;27;20047;-66
2024/01/18 06:31:26;;;;;;;48.38;22.48;;;;;;;;;;5132261;27;20043;-66
2024/01/18 06:33:53;;;;;;;59.40;22.20;;;;;;;;;;5132222;27;20067;-67
2024/01/18 06:36:22;;;;;;;48.92;22.40;;;;;;;;;;5131690;27;20054;-69
2024/01/18 06:38:51;;;;;;;48.47;24.73;;;;;;;;;;5131795;27;20414;-65
2024/01/18 06:41:19;;;;;;;50.45;22.25;;;;;;;;;;5130825;27;20051;-67
2024/01/18 06:43:46;;;;;;;52.08;23.70;;;;;;;;;;5131831;27;20513;-68
2024/01/18 06:46:16;;;;;;;57.50;22.52;;;;;;;;;;5131578;27;20864;-66
2024/01/18 06:48:43;;;;;;;52.83;23.70;;;;;;;;;;5131111;27;20054;-65
2024/01/18 06:51:12;;;;;;;43.88;23.10;;;;;;;;;;5122780;27;20051;-68
2024/01/18 06:53:39;;;;;;;57.30;23.38;;;;;;;;;;5112576;28;20043;-69
2024/01/18 06:56:09;;;;;;;48.10;23.67;;;;;;;;;;5110602;28;20089;-67
2024/01/18 06:58:36;;;;;;;43.40;23.25;;;;;;;;;;5110921;28;20100;-64
2024/01/18 07:01:02;;;;;;;49.53;23.48;;;;;;;;;;5119795;27;20380;-66
2024/01/18 07:03:30;;;;;;;51.50;21.85;;;;;;;;;;5131631;27;20050;-65
2024/01/18 07:05:57;;;;;;;51.75;23.75;;;;;;;;;;5124130;27;20052;-66
2024/01/18 07:08:26;;;;;;;55.88;23.42;;;;;;;;;;5110450;28;20547;-67
2024/01/18 07:10:53;;;;;;;50.22;23.92;;;;;;;;;;5108098;27;20075;-65
2024/01/18 07:13:19;;;;;;;54.67;23.77;;;;;;;;;;5131102;27;20104;-64
2024/01/18 07:15:45;;;;;;;46.95;23.45;;;;;;;;;;5112580;27;20170;-67
2024/01/18 07:18:12;;;;;;;54.13;23.13;;;;;;;;;;5130283;27;20411;-67
2024/01/18 07:20:39;;;;;;;58.95;25.63;;;;;;;;;;5130899;27;20051;-66
2024/01/18 07:23:05;;;;;;;51.40;25.13;;;;;;;;;;5130895;27;20496;-68
2024/01/18 07:25:32;;;;;;;51.33;24.20;;;;;;;;;;5131384;27;20134;-69
2024/01/18 07:27:58;;;;;;;60.78;25.75;;;;;;;;;;5130942;27;20055;-70
2024/01/18 07:30:25;;;;;;;48.85;23.92;;;;;;;;;;5131168;27;20051;-64
2024/01/18 07:32:51;;;;;;;56.22;24.80;;;;;;;;;;5125904;27;20053;-66
2024/01/18 07:35:18;;;;;;;50.90;23.02;;;;;;;;;;5129200;27;20234;-69
2024/01/18 07:37:44;;;;;;;61.28;27.35;;;;;;;;;;5130569;27;20047;-69
2024/01/18 07:40:11;;;;;;;49.65;23.92;;;;;;;;;;5128598;27;20529;-66
2024/01/18 07:42:37;;;;;;;51.03;24.63;;;;;;;;;;5130026;27;20465;-69
2024/01/18 07:45:08;;;;;;;59.22;25.52;;;;;;;;;;5131898;27;20039;-67
2024/01/18 07:47:35;;;;;;;46.10;23.25;;;;;;;;;;5131773;27;20073;-68
2024/01/18 07:50:01;;;;;;;48.38;24.17;;;;;;;;;;5130108;27;20096;-71
2024/01/18 07:52:48;;;;;;;55.78;23.27;;;;;;;;;;5125040;27;20059;-71
2024/01/18 07:55:15;;;;;;;51.35;24.30;;;;;;;;;;5129453;27;20051;-66
2024/01/18 07:57:46;;;;;;;51.45;26.13;;;;;;;;;;5129493;27;20049;-67
2024/01/18 08:00:13;;;;;;;56.47;26.15;;;;;;;;;;5128427;27;20675;-70
2024/01/18 08:02:39;;;;;;;51.42;24.65;;;;;;;;;;5129633;27;20477;-65
2024/01/18 08:05:06;;;;;;;53.05;25.83;;;;;;;;;;5111113;27;20391;-65
2024/01/18 08:07:32;;;;;;;59.08;26.42;;;;;;;;;;5129057;27;20043;-65
2024/01/18 08:09:59;;;;;;;56.28;25.80;;;;;;;;;;5128610;27;20099;-68
2024/01/18 08:12:25;;;;;;;55.30;27.02;;;;;;;;;;5128255;27;20058;-68
2024/01/18 08:14:52;;;;;;;55.58;24.73;;;;;;;;;;5110184;27;20058;-67
2024/01/18 08:17:18;;;;;;;58.15;25.75;;;;;;;;;;5118905;27;20047;-67
2024/01/18 08:19:44;;;;;;;52.53;26.88;;;;;;;;;;5129461;27;20514;-67
2024/01/18 08:22:12;;;;;;;55.25;26.25;;;;;;;;;;5111697;27;20055;-68
2024/01/18 08:24:39;;;;;;;56.13;25.25;;;;;;;;;;5129269;27;20055;-66
2024/01/18 08:27:05;;;;;;;53.90;25.23;;;;;;;;;;5129777;27;20051;-69
2024/01/18 08:29:32;;;;;;;57.63;26.40;;;;;;;;;;5128415;27;20503;-69
2024/01/18 08:31:58;;;;;;;53.38;26.38;;;;;;;;;;5111910;27;20051;-68
2024/01/18 08:34:24;;;;;;;61.53;27.13;;;;;;;;;;5111055;27;20543;-68
2024/01/18 08:36:51;;;;;;;60.78;25.88;;;;;;;;;;5129228;27;20054;-65
2024/01/18 08:39:18;;;;;;;54.97;24.88;;;;;;;;;;5109790;27;20080;-66
2024/01/18 08:41:46;;;;;;;53.90;26.98;;;;;;;;;;5109106;27;20047;-67
2024/01/18 08:44:12;;;;;;;59.33;27.35;;;;;;;;;;5128704;27;20070;-68
2024/01/18 08:46:39;;;;;;;52.58;25.50;;;;;;;;;;5128829;27;20116;-69
2024/01/18 08:49:07;;;;;;;56.55;26.65;;;;;;;;;;5129060;27;20047;-70
2024/01/18 08:51:34;;;;;;;58.80;26.05;;;;;;;;;;5120709;27;20047;-70
2024/01/18 08:54:01;;;;;;;51.15;25.88;;;;;;;;;;5128360;27;20132;-65
2024/01/18 08:56:27;;;;;;;69.45;28.25;;;;;;;;;;5127941;27;20047;-67
2024/01/18 08:58:57;;;;;;;59.58;28.85;;;;;;;;;;5128215;27;20855;-66
2024/01/18 09:01:23;;;;;;;55.00;27.20;;;;;;;;;;5110290;27;20075;-65
2024/01/18 09:03:51;;;;;;;58.13;27.08;;;;;;;;;;5128368;27;20442;-67
2024/01/18 09:06:18;;;;;;;53.75;25.83;;;;;;;;;;5117799;27;20078;-65
2024/01/18 09:08:45;;;;;;;52.95;25.23;;;;;;;;;;5122375;27;20100;-67
2024/01/18 09:11:11;;;;;;;52.58;26.63;;;;;;;;;;5127836;27;20039;-66
2024/01/18 09:13:38;;;;;;;56.17;26.63;;;;;;;;;;5128174;27;20099;-64
2024/01/18 09:16:04;;;;;;;49.30;23.98;;;;;;;;;;5111486;27;20558;-70
2024/01/18 09:18:31;;;;;;;55.38;25.30;;;;;;;;;;5109726;27;20051;-65
2024/01/18 09:20:57;;;;;;;56.35;26.13;;;;;;;;;;5110178;27;20055;-65
2024/01/18 09:23:24;;;;;;;48.15;24.55;;;;;;;;;;5128218;27;20043;-66
2024/01/18 09:25:50;;;;;;;56.67;27.88;;;;;;;;;;5128080;27;20082;-66
2024/01/18 09:28:16;;;;;;;53.33;26.42;;;;;;;;;;5126948;27;20172;-66
2024/01/18 09:30:43;;;;;;;60.22;26.75;;;;;;;;;;5128345;27;20043;-66
2024/01/18 09:33:10;;;;;;;53.85;27.30;;;;;;;;;;5127925;27;20046;-67
2024/01/18 09:35:38;;;;;;;50.47;25.50;;;;;;;;;;5127116;28;20111;-69
2024/01/18 09:38:05;;;;;;;55.53;24.58;;;;;;;;;;5129700;28;20070;-73
2024/01/18 09:40:31;;;;;;;50.72;25.40;;;;;;;;;;5131110;28;20092;-68
2024/01/18 09:42:59;;;;;;;55.60;25.77;;;;;;;;;;5109290;28;20066;-70
2024/01/18 09:45:27;;;;;;;61.70;27.77;;;;;;;;;;5117348;28;20047;-66
2024/01/18 09:47:54;;;;;;;56.53;26.00;;;;;;;;;;5122460;28;20111;-66
2024/01/18 09:50:21;;;;;;;55.88;26.98;;;;;;;;;;5126482;28;20058;-64
2024/01/18 09:52:49;;;;;;;51.45;28.40;;;;;;;;;;5125325;28;20057;-65
2024/01/18 09:55:16;;;;;;;61.28;27.05;;;;;;;;;;5120700;28;20052;-68
2024/01/18 09:57:47;;;;;;;62.78;28.30;;;;;;;;;;5127076;28;20061;-72
2024/01/18 10:00:15;;;;;;;58.28;28.15;;;;;;;;;;5126657;28;20047;-71
2024/01/18 10:02:41;;;;;;;58.47;28.25;;;;;;;;;;5128159;28;20096;-67
2024/01/18 10:05:11;;;;;;;60.45;25.33;;;;;;;;;;5127946;28;20130;-65
2024/01/18 10:07:38;;;;;;;48.45;24.67;;;;;;;;;;5127198;28;20043;-69
2024/01/18 10:10:07;;;;;;;55.10;25.50;;;;;;;;;;5127594;28;20060;-68
2024/01/18 10:12:34;;;;;;;59.33;28.52;;;;;;;;;;5125712;28;20131;-66
2024/01/18 10:15:00;;;;;;;54.58;25.95;;;;;;;;;;5127685;28;20047;-65
2024/01/18 10:17:28;;;;;;;60.20;27.98;;;;;;;;;;5110133;28;20075;-65
2024/01/18 10:19:55;;;;;;;58.85;26.55;;;;;;;;;;5126604;28;20513;-66
2024/01/18 10:22:22;;;;;;;57.95;27.42;;;;;;;;;;5126789;28;20078;-65
2024/01/18 10:24:51;;;;;;;58.10;28.60;;;;;;;;;;5127136;28;20055;-64
2024/01/18 10:27:18;;;;;;;64.22;28.45;;;;;;;;;;5126687;27;20082;-68
2024/01/18 10:29:45;;;;;;;61.70;29.77;;;;;;;;;;5109502;28;20502;-64
2024/01/18 10:32:11;;;;;;;61.15;27.55;;;;;;;;;;5126718;28;20134;-65
2024/01/18 10:34:38;;;;;;;56.45;28.65;;;;;;;;;;5126194;28;20047;-66
2024/01/18 10:37:06;;;;;;;61.35;27.70;;;;;;;;;;5124805;27;20047;-66
2024/01/18 10:39:39;;;;;;;57.55;26.63;;;;;;;;;;5107878;28;20066;-66
2024/01/18 10:42:09;;;;;;;56.53;29.13;;;;;;;;;;5123395;27;20053;-65
2024/01/18 10:44:43;;;;;;;54.70;29.00;;;;;;;;;;5129296;27;20047;-64
2024/01/18 10:47:13;;;;;;;67.45;29.60;;;;;;;;;;5129767;27;20046;-65
2024/01/18 10:49:40;;;;;;;52.28;26.27;;;;;;;;;;5129848;27;20081;-66
2024/01/18 10:52:08;;;;;;;53.50;28.17;;;;;;;;;;5130341;27;20047;-65
2024/01/18 10:54:35;;;;;;;53.53;26.10;;;;;;;;;;5130377;27;20051;-66
2024/01/18 10:57:05;;;;;;;48.20;26.73;;;;;;;;;;5130523;27;20122;-66
2024/01/18 10:59:32;;;;;;;54.95;28.65;;;;;;;;;;5130668;27;20108;-64
2024/01/18 11:01:59;;;;;;;61.40;28.70;;;;;;;;;;5130249;27;20047;-64
2024/01/18 11:04:26;;;;;;;58.63;28.02;;;;;;;;;;5130273;27;20055;-64
2024/01/18 11:06:55;;;;;;;59.88;28.40;;;;;;;;;;5129856;27;20047;-68
2024/01/18 11:09:26;;;;;;;54.92;26.42;;;;;;;;;;5129877;27;20470;-66
2024/01/18 11:11:54;;;;;;;62.33;26.85;;;;;;;;;;5123744;27;20499;-67
2024/01/18 11:14:20;;;;;;;59.67;27.48;;;;;;;;;;5123872;27;20491;-63
2024/01/18 11:16:47;;;;;;;62.63;26.35;;;;;;;;;;5129838;27;20047;-62
2024/01/18 11:19:17;;;;;;;66.38;28.92;;;;;;;;;;5129808;27;20096;-67
2024/01/18 11:21:43;;;;;;;56.90;26.20;;;;;;;;;;5130232;27;20572;-68
2024/01/18 11:24:14;;;;;;;56.97;26.83;;;;;;;;;;5130076;27;20542;-68
2024/01/18 11:26:41;;;;;;;63.17;28.30;;;;;;;;;;5130516;27;20055;-68
2024/01/18 11:29:18;;;;;;;67.47;30.85;;;;;;;;;;5132743;27;20085;-63
2024/01/18 11:31:50;;;;;;;59.75;26.63;;;;;;;;;;5123792;27;20040;-63
2024/01/18 11:34:36;;;;;;;58.47;27.50;;;;;;;;;;5128887;27;20047;-65
2024/01/18 11:37:10;;;;;;;64.13;29.38;;;;;;;;;;5129326;27;20130;-65
2024/01/18 11:39:48;;;;;;;54.97;28.08;;;;;;;;;;5125482;27;20058;-66
2024/01/18 11:42:35;;;;;;;58.10;28.38;;;;;;;;;;5129615;27;20045;-64
2024/01/18 11:45:12;;;;;;;57.17;25.83;;;;;;;;;;5126816;27;20058;-64
2024/01/18 11:47:39;;;;;;;50.45;27.02;;;;;;;;;;5120346;27;20055;-63
2024/01/18 11:50:11;;;;;;;53.53;26.77;;;;;;;;;;5127845;27;20616;-65
2024/01/18 11:52:41;;;;;;;57.58;26.70;;;;;;;;;;5122329;27;20526;-64
2024/01/18 11:55:08;;;;;;;52.40;23.75;;;;;;;;;;5129018;27;20051;-64
2024/01/18 11:57:35;;;;;;;57.55;28.40;;;;;;;;;;5117343;27;20120;-69
2024/01/18 12:00:03;;;;;;;55.13;27.90;;;;;;;;;;5113189;27;20096;-65
2024/01/18 12:02:29;;;;;;;51.75;29.20;;;;;;;;;;5127107;27;20043;-64
2024/01/18 12:04:57;;;;;;;58.58;28.92;;;;;;;;;;5126225;27;20134;-63
2024/01/18 12:07:24;;;;;;;59.47;27.75;;;;;;;;;;5127730;27;20108;-64
2024/01/18 12:09:51;;;;;;;54.22;28.02;;;;;;;;;;5128683;27;20058;-64
2024/01/18 12:12:18;;;;;;;62.50;28.65;;;;;;;;;;5128399;27;20050;-63
2024/01/18 12:14:45;;;;;;;64.18;30.45;;;;;;;;;;5127303;27;20059;-65
2024/01/18 12:17:13;;;;;;;64.43;29.85;;;;;;;;;;5126332;27;20039;-64
2024/01/18 12:19:40;;;;;;;70.80;31.63;;;;;;;;;;5125487;27;20099;-64
2024/01/18 12:22:08;;;;;;;68.05;30.00;;;;;;;;;;5127248;27;20051;-63
2024/01/18 12:24:35;;;;;;;64.15;30.30;;;;;;;;;;5109352;27;20104;-73
2024/01/18 12:27:02;;;;;;;62.33;30.85;;;;;;;;;;5128336;27;20047;-66
2024/01/18 12:29:30;;;;;;;66.90;30.13;;;;;;;;;;5127224;27;20123;-67
2024/01/18 12:31:56;;;;;;;57.88;27.92;;;;;;;;;;5125903;27;20047;-66
2024/01/18 12:34:23;;;;;;;54.25;28.55;;;;;;;;;;5125069;27;20086;-66
2024/01/18 12:36:49;;;;;;;53.83;28.27;;;;;;;;;;5127312;27;20031;-65
2024/01/18 12:39:19;;;;;;;58.33;27.55;;;;;;;;;;5126084;27;20079;-62
2024/01/18 12:41:46;;;;;;;55.10;27.13;;;;;;;;;;5113089;27;20039;-66
2024/01/18 12:44:15;;;;;;;50.65;24.77;;;;;;;;;;5108208;27;20109;-63
2024/01/18 12:46:41;;;;;;;56.35;27.83;;;;;;;;;;5126811;27;20503;-64
2024/01/18 12:49:08;;;;;;;48.58;24.80;;;;;;;;;;5125161;27;20155;-67
2024/01/18 12:51:34;;;;;;;49.78;24.67;;;;;;;;;;5118556;27;20051;-67
2024/01/18 12:54:01;;;;;;;46.88;25.15;;;;;;;;;;5126999;27;20051;-63
2024/01/18 12:56:27;;;;;;;54.72;25.63;;;;;;;;;;5125279;27;20062;-70
2024/01/18 12:58:54;;;;;;;52.55;26.02;;;;;;;;;;5123215;27;20066;-72
2024/01/18 13:01:28;;;;;;;59.90;27.60;;;;;;;;;;5095759;27;20506;-67
2024/01/18 13:04:21;;;;;;;48.88;24.45;;;;;;;;;;5126131;27;20043;-68
2024/01/18 13:06:51;;;;;;;51.65;23.35;;;;;;;;;;5122051;27;20137;-68
2024/01/18 13:09:27;;;;;;;42.97;24.13;;;;;;;;;;5113801;27;20050;-65
2024/01/18 13:11:55;;;;;;;43.30;23.40;;;;;;;;;;5127175;27;20376;-66
2024/01/18 13:14:21;;;;;;;52.67;25.80;;;;;;;;;;5126959;27;20055;-63
2024/01/18 13:16:49;;;;;;;43.35;24.00;;;;;;;;;;5126584;27;20132;-64
2024/01/18 13:19:18;;;;;;;49.15;25.33;;;;;;;;;;5125041;27;20538;-64
2024/01/18 13:21:44;;;;;;;49.47;24.02;;;;;;;;;;5126860;27;20043;-63
2024/01/18 13:24:11;;;;;;;44.42;22.38;;;;;;;;;;5107250;27;21430;-66
2024/01/18 13:26:38;;;;;;;39.60;21.73;;;;;;;;;;5123141;27;20047;-66
2024/01/18 13:29:05;;;;;;;45.72;23.23;;;;;;;;;;5121661;27;20519;-63
2024/01/18 13:31:33;;;;;;;40.88;22.25;;;;;;;;;;5126548;27;20619;-69
2024/01/18 13:34:00;;;;;;;43.50;22.58;;;;;;;;;;5123908;27;20043;-68
2024/01/18 13:36:26;;;;;;;44.28;23.10;;;;;;;;;;5126417;28;20066;-69
2024/01/18 13:38:53;;;;;;;45.10;23.30;;;;;;;;;;5126218;28;20095;-70
2024/01/18 13:41:19;;;;;;;45.63;24.45;;;;;;;;;;5126614;28;20267;-67
2024/01/18 13:43:46;;;;;;;39.42;22.85;;;;;;;;;;5126441;28;20111;-66
2024/01/18 13:46:14;;;;;;;37.88;21.35;;;;;;;;;;5126474;28;20114;-68
2024/01/18 13:48:43;;;;;;;44.42;21.65;;;;;;;;;;5125253;28;20051;-69
2024/01/18 13:51:10;;;;;;;45.13;22.70;;;;;;;;;;5116864;28;20055;-66
2024/01/18 13:53:36;;;;;;;44.45;24.58;;;;;;;;;;5102518;28;20478;-65
2024/01/18 13:56:03;;;;;;;47.08;23.95;;;;;;;;;;5110072;28;20047;-66
2024/01/18 13:58:30;;;;;;;42.95;21.27;;;;;;;;;;5125763;28;20679;-68
2024/01/18 14:00:56;;;;;;;45.90;22.60;;;;;;;;;;5125955;28;20100;-66
2024/01/18 14:03:23;;;;;;;44.40;22.08;;;;;;;;;;5127795;28;20460;-70
2024/01/18 14:05:50;;;;;;;45.20;24.02;;;;;;;;;;5120097;28;20054;-65
2024/01/18 14:08:17;;;;;;;45.58;22.55;;;;;;;;;;5124221;28;20066;-65
2024/01/18 14:10:43;;;;;;;44.13;22.75;;;;;;;;;;5127713;28;20051;-67
2024/01/18 14:13:10;;;;;;;56.95;25.38;;;;;;;;;;5126802;28;20166;-69
2024/01/18 14:15:37;;;;;;;49.10;24.23;;;;;;;;;;5127723;27;20495;-67
2024/01/18 14:18:04;;;;;;;46.83;24.52;;;;;;;;;;5128679;27;20051;-67